createdAt,value
2023-05-24T00:01:13.147Z,10.60
2023-05-24T00:03:47.164Z,8.60
2023-05-24T00:06:19.477Z,8.10
2023-05-24T00:08:51.785Z,10.50
2023-05-24T00:11:23.749Z,13.80
2023-05-24T00:13:56.242Z,11.10
2023-05-24T00:16:28.440Z,8.10
2023-05-24T00:19:00.777Z,7.90
2023-05-24T00:21:35.513Z,8.10
2023-05-24T00:24:08.047Z,12.50
2023-05-24T00:26:40.061Z,7.70
2023-05-24T00:29:12.954Z,8.40
2023-05-24T00:31:44.990Z,10.10
2023-05-24T00:34:17.279Z,9.40
2023-05-24T00:36:49.044Z,9.60
2023-05-24T00:39:22.443Z,9.30
2023-05-24T00:41:54.237Z,8.10
2023-05-24T00:44:26.419Z,10.90
2023-05-24T00:46:58.311Z,8.20
2023-05-24T00:49:31.603Z,10.50
2023-05-24T00:52:04.062Z,8.50
2023-05-24T00:54:36.439Z,7.70
2023-05-24T00:57:09.013Z,7.70
2023-05-24T00:59:41.342Z,8.30
2023-05-24T01:02:13.385Z,8.00
2023-05-24T01:04:45.638Z,8.80
2023-05-24T01:07:24.205Z,7.80
2023-05-24T01:10:06.305Z,9.10
2023-05-24T01:12:53.077Z,8.00
2023-05-24T01:15:29.564Z,7.50
2023-05-24T01:18:08.184Z,8.30
2023-05-24T01:20:42.030Z,8.40
2023-05-24T01:23:34.693Z,10.10
2023-05-24T01:26:26.573Z,8.40
2023-05-24T01:28:58.759Z,7.40
2023-05-24T01:31:31.029Z,10.40
2023-05-24T01:34:03.706Z,7.30
2023-05-24T01:36:36.465Z,7.40
2023-05-24T01:39:08.419Z,8.60
2023-05-24T01:41:44.703Z,11.60
2023-05-24T01:44:21.110Z,8.10
2023-05-24T01:47:03.532Z,9.80
2023-05-24T01:49:41.933Z,8.80
2023-05-24T01:52:17.881Z,7.90
2023-05-24T01:54:53.045Z,7.70
2023-05-24T01:57:25.917Z,9.70
2023-05-24T01:59:58.441Z,8.00
2023-05-24T02:02:31.202Z,8.10
2023-05-24T02:05:03.375Z,9.60
2023-05-24T02:07:38.034Z,10.40
2023-05-24T02:10:11.400Z,7.20
2023-05-24T02:12:43.532Z,9.20
2023-05-24T02:15:15.832Z,9.10
2023-05-24T02:17:48.396Z,7.10
2023-05-24T02:22:54.940Z,7.30
2023-05-24T02:25:27.308Z,9.50
2023-05-24T02:27:59.929Z,7.80
2023-05-24T02:30:31.904Z,8.10
2023-05-24T02:33:04.207Z,7.10
2023-05-24T02:35:36.160Z,7.00
2023-05-24T02:38:09.911Z,9.20
2023-05-24T02:40:41.873Z,8.90
2023-05-24T02:43:14.476Z,7.80
2023-05-24T02:45:46.290Z,10.70
2023-05-24T02:48:18.568Z,7.00
2023-05-24T02:50:50.441Z,7.70
2023-05-24T02:53:22.728Z,8.30
2023-05-24T02:55:55.037Z,7.30
2023-05-24T02:58:29.141Z,7.60
2023-05-24T03:01:01.761Z,11.30
2023-05-24T03:03:33.972Z,7.60
2023-05-24T03:06:07.206Z,9.40
2023-05-24T03:08:39.105Z,7.30
2023-05-24T03:11:10.830Z,10.60
2023-05-24T03:13:42.963Z,8.20
2023-05-24T03:16:14.782Z,7.90
2023-05-24T03:18:46.917Z,8.30
2023-05-24T03:21:20.899Z,11.80
2023-05-24T03:23:53.205Z,10.20
2023-05-24T03:26:25.910Z,13.20
2023-05-24T03:28:58.186Z,12.00
2023-05-24T03:31:30.538Z,11.80
2023-05-24T03:34:02.710Z,8.00
2023-05-24T03:36:34.522Z,7.60
2023-05-24T03:39:07.663Z,10.80
2023-05-24T03:41:39.464Z,7.60
2023-05-24T03:44:11.295Z,8.50
2023-05-24T03:46:43.287Z,9.90
2023-05-24T03:49:15.312Z,7.70
2023-05-24T03:51:47.071Z,7.50
2023-05-24T03:54:19.126Z,7.30
2023-05-24T03:56:53.523Z,7.80
2023-05-24T03:59:25.434Z,10.20
2023-05-24T04:01:57.354Z,7.70
2023-05-24T04:04:29.543Z,7.20
2023-05-24T04:07:01.302Z,7.30
2023-05-24T04:09:33.292Z,8.20
2023-05-24T04:12:05.131Z,10.70
2023-05-24T04:14:37.089Z,8.60
2023-05-24T04:17:09.358Z,10.60
2023-05-24T04:19:41.340Z,10.00
2023-05-24T04:22:13.289Z,8.00
2023-05-24T04:24:45.266Z,6.80
2023-05-24T04:27:18.309Z,12.00
2023-05-24T04:29:50.599Z,8.00
2023-05-24T04:32:23.836Z,7.60
2023-05-24T04:34:56.608Z,7.00
2023-05-24T04:37:29.570Z,11.60
2023-05-24T04:40:01.549Z,7.10
2023-05-24T04:42:33.557Z,9.00
2023-05-24T04:45:05.626Z,8.70
2023-05-24T04:47:37.847Z,7.30
2023-05-24T04:50:11.046Z,6.60
2023-05-24T04:52:43.095Z,11.40
2023-05-24T04:55:14.882Z,8.80
2023-05-24T04:57:47.026Z,7.60
2023-05-24T05:00:20.047Z,12.90
2023-05-24T05:02:52.250Z,14.80
2023-05-24T05:05:24.855Z,6.30
2023-05-24T05:07:57.518Z,7.40
2023-05-24T05:10:29.683Z,7.70
2023-05-24T05:13:01.597Z,13.60
2023-05-24T05:15:33.724Z,8.10
2023-05-24T05:18:05.685Z,7.40
2023-05-24T05:20:37.757Z,8.00
2023-05-24T05:23:09.730Z,7.30
2023-05-24T05:25:41.583Z,9.00
2023-05-24T05:28:13.389Z,7.40
2023-05-24T05:30:45.442Z,11.00
2023-05-24T05:33:17.271Z,8.40
2023-05-24T05:35:49.510Z,8.20
2023-05-24T05:38:21.378Z,7.00
2023-05-24T05:40:53.501Z,13.40
2023-05-24T05:43:26.762Z,8.40
2023-05-24T05:45:58.627Z,6.60
2023-05-24T05:48:30.681Z,14.60
2023-05-24T05:51:02.874Z,10.90
2023-05-24T05:53:36.313Z,10.30
2023-05-24T05:56:08.573Z,14.60
2023-05-24T05:58:40.528Z,8.60
2023-05-24T06:01:12.528Z,9.00
2023-05-24T06:03:44.363Z,9.10
2023-05-24T06:06:16.561Z,13.60
2023-05-24T06:08:48.364Z,8.70
2023-05-24T06:11:20.291Z,8.40
2023-05-24T06:13:52.200Z,7.20
2023-05-24T06:16:23.968Z,6.10
2023-05-24T06:19:05.578Z,9.60
2023-05-24T06:21:38.677Z,9.70
2023-05-24T06:24:11.468Z,11.10
2023-05-24T06:26:43.933Z,10.60
2023-05-24T06:29:15.961Z,7.20
2023-05-24T06:31:48.440Z,7.20
2023-05-24T06:34:22.271Z,6.30
2023-05-24T06:36:54.446Z,5.70
2023-05-24T06:39:26.550Z,6.40
2023-05-24T06:41:58.538Z,7.50
2023-05-24T06:44:34.670Z,6.60
2023-05-24T06:47:07.697Z,6.30
2023-05-24T06:49:40.337Z,6.90
2023-05-24T06:52:13.979Z,6.50
2023-05-24T06:54:46.196Z,6.30
2023-05-24T06:57:18.074Z,8.70
2023-05-24T06:59:50.051Z,8.70
2023-05-24T07:02:27.306Z,6.20
2023-05-24T07:05:00.125Z,6.90
2023-05-24T07:07:32.688Z,5.90
2023-05-24T07:10:04.731Z,5.70
2023-05-24T07:12:36.968Z,6.90
2023-05-24T07:15:11.417Z,6.00
2023-05-24T07:17:43.295Z,10.80
2023-05-24T07:20:16.203Z,8.50
2023-05-24T07:22:48.298Z,8.90
2023-05-24T07:25:20.092Z,8.20
2023-05-24T07:27:52.073Z,9.50
2023-05-24T07:30:34.809Z,12.10
2023-05-24T07:33:07.268Z,42.70
2023-05-24T07:35:39.702Z,9.20
2023-05-24T07:38:12.056Z,12.90
2023-05-24T07:40:44.273Z,10.70
2023-05-24T07:43:17.041Z,9.20
2023-05-24T07:45:49.102Z,6.20
2023-05-24T07:48:22.382Z,27.50
2023-05-24T07:50:55.231Z,9.60
2023-05-24T07:53:27.491Z,6.90
2023-05-24T07:56:00.053Z,6.60
2023-05-24T07:58:32.875Z,8.40
2023-05-24T08:01:05.863Z,5.60
2023-05-24T08:03:39.670Z,7.20
2023-05-24T08:06:13.215Z,9.50
2023-05-24T08:11:16.211Z,5.00
2023-05-24T08:13:48.519Z,6.90
2023-05-24T08:16:21.414Z,4.90
2023-05-24T08:18:55.316Z,10.70
2023-05-24T08:21:29.438Z,8.30
2023-05-24T08:24:01.965Z,4.80
2023-05-24T08:26:34.308Z,6.00
2023-05-24T08:29:06.507Z,11.70
2023-05-24T08:31:39.234Z,6.80
2023-05-24T08:34:16.116Z,4.40
2023-05-24T08:36:47.961Z,12.60
2023-05-24T08:39:20.178Z,14.50
2023-05-24T08:42:07.931Z,6.50
2023-05-24T08:44:46.912Z,6.10
2023-05-24T08:47:19.306Z,8.30
2023-05-24T08:49:51.952Z,11.80
2023-05-24T08:52:24.214Z,9.10
2023-05-24T08:54:57.027Z,13.90
2023-05-24T08:57:30.925Z,8.20
2023-05-24T09:00:03.256Z,5.70
2023-05-24T09:02:35.576Z,7.20
2023-05-24T09:05:09.662Z,5.20
2023-05-24T09:07:41.546Z,6.00
2023-05-24T09:10:14.272Z,6.20
2023-05-24T09:12:49.933Z,10.80
2023-05-24T09:15:21.914Z,9.10
2023-05-24T09:17:53.806Z,5.00
2023-05-24T09:20:25.921Z,7.70
2023-05-24T09:22:58.286Z,5.60
2023-05-24T09:25:31.197Z,16.70
2023-05-24T09:28:09.376Z,12.90
2023-05-24T09:30:41.974Z,5.00
2023-05-24T09:33:14.154Z,7.60
2023-05-24T09:35:46.495Z,6.40
2023-05-24T09:38:22.031Z,7.90
2023-05-24T09:41:03.563Z,13.90
2023-05-24T09:43:37.396Z,8.20
2023-05-24T09:46:09.555Z,7.70
2023-05-24T09:48:41.460Z,11.40
2023-05-24T09:51:14.298Z,7.90
2023-05-24T09:53:48.403Z,9.40
2023-05-24T09:56:20.635Z,5.20
2023-05-24T09:58:52.581Z,7.20
2023-05-24T10:01:26.955Z,11.30
2023-05-24T10:04:01.317Z,12.90
2023-05-24T10:06:37.228Z,14.80
2023-05-24T10:09:09.975Z,13.20
2023-05-24T10:11:42.860Z,6.90
2023-05-24T10:14:15.135Z,9.10
2023-05-24T10:16:47.465Z,8.80
2023-05-24T10:19:19.590Z,8.90
2023-05-24T10:21:52.739Z,7.50
2023-05-24T10:24:27.537Z,10.40
2023-05-24T10:27:00.570Z,13.90
2023-05-24T10:29:52.830Z,5.90
2023-05-24T10:32:25.993Z,10.00
2023-05-24T10:34:58.373Z,15.70
2023-05-24T10:37:30.413Z,10.80
2023-05-24T10:40:02.704Z,7.90
2023-05-24T10:42:35.152Z,10.60
2023-05-24T10:45:36.056Z,5.50
2023-05-24T10:48:40.964Z,14.50
2023-05-24T10:51:39.016Z,13.50
2023-05-24T10:54:21.631Z,15.20
2023-05-24T10:56:53.790Z,13.20
2023-05-24T10:59:34.991Z,9.30
2023-05-24T11:02:13.920Z,15.10
2023-05-24T11:04:49.487Z,11.60
2023-05-24T11:07:21.801Z,11.20
2023-05-24T11:09:57.412Z,10.10
2023-05-24T11:12:38.685Z,11.90
2023-05-24T11:15:12.720Z,15.60
2023-05-24T11:18:17.192Z,19.40
2023-05-24T11:20:50.795Z,15.90
2023-05-24T11:23:23.010Z,12.00
2023-05-24T11:25:55.133Z,13.00
2023-05-24T11:28:29.036Z,6.70
2023-05-24T11:31:10.712Z,11.60
2023-05-24T11:33:45.029Z,16.90
2023-05-24T11:36:17.810Z,19.20
2023-05-24T11:38:51.179Z,16.10
2023-05-24T11:41:23.551Z,13.90
2023-05-24T11:43:55.312Z,10.70
2023-05-24T11:46:27.661Z,20.90
2023-05-24T11:49:00.773Z,8.40
2023-05-24T11:51:34.236Z,12.40
2023-05-24T11:56:37.375Z,13.40
2023-05-24T11:59:17.825Z,28.70
2023-05-24T12:01:49.893Z,10.10
2023-05-24T12:04:21.993Z,14.60
2023-05-24T12:06:55.048Z,8.90
2023-05-24T12:09:27.933Z,12.80
2023-05-24T12:12:00.368Z,13.30
2023-05-24T12:14:34.765Z,18.40
2023-05-24T12:17:07.283Z,19.40
2023-05-24T12:19:39.729Z,7.50
2023-05-24T12:22:11.830Z,27.20
2023-05-24T12:24:43.943Z,13.60
2023-05-24T12:27:16.098Z,11.20
2023-05-24T12:29:49.280Z,14.10
2023-05-24T12:34:52.478Z,13.90
2023-05-24T12:37:24.739Z,8.90
2023-05-24T12:39:56.515Z,6.80
2023-05-24T12:42:29.298Z,8.10
2023-05-24T12:45:01.472Z,12.40
2023-05-24T12:47:33.409Z,14.40
2023-05-24T12:50:05.584Z,11.90
2023-05-24T12:52:37.639Z,9.10
2023-05-24T12:55:10.888Z,9.60
2023-05-24T12:57:43.152Z,10.50
2023-05-24T13:00:17.196Z,11.80
2023-05-24T13:02:49.668Z,13.90
2023-05-24T13:05:21.818Z,19.60
2023-05-24T13:07:54.810Z,7.80
2023-05-24T13:10:27.772Z,13.80
2023-05-24T13:13:00.656Z,10.20
2023-05-24T13:15:32.462Z,9.70
2023-05-24T13:18:04.899Z,8.10
2023-05-24T13:20:37.411Z,6.40
2023-05-24T13:23:09.604Z,6.70
2023-05-24T13:25:41.644Z,5.90
2023-05-24T13:28:14.022Z,4.70
2023-05-24T13:30:46.299Z,5.00
2023-05-24T13:33:18.694Z,5.10
2023-05-24T13:35:51.182Z,9.40
2023-05-24T13:38:23.710Z,5.90
2023-05-24T13:40:56.560Z,4.90
2023-05-24T13:43:28.898Z,8.70
2023-05-24T13:46:01.354Z,6.10
2023-05-24T13:48:34.161Z,6.70
2023-05-24T13:51:06.550Z,4.40
2023-05-24T13:53:38.955Z,7.70
2023-05-24T13:56:11.032Z,5.60
2023-05-24T13:58:43.432Z,5.90
2023-05-24T14:01:15.328Z,6.30
2023-05-24T14:03:47.753Z,10.50
2023-05-24T14:06:20.060Z,7.00
2023-05-24T14:08:52.417Z,4.70
2023-05-24T14:11:25.256Z,9.40
2023-05-24T14:16:32.605Z,7.80
2023-05-24T14:19:05.008Z,12.00
2023-05-24T14:21:37.754Z,7.90
2023-05-24T14:24:10.869Z,5.00
2023-05-24T14:26:43.246Z,6.30
2023-05-24T14:29:15.492Z,6.00
2023-05-24T14:31:47.726Z,7.50
2023-05-24T14:34:20.162Z,5.30
2023-05-24T14:36:51.931Z,7.40
2023-05-24T14:39:25.883Z,6.00
2023-05-24T14:41:58.126Z,9.70
2023-05-24T14:44:31.025Z,7.70
2023-05-24T14:47:03.728Z,9.50
2023-05-24T14:49:36.045Z,5.90
2023-05-24T14:52:08.282Z,11.00
2023-05-24T14:54:40.823Z,6.50
2023-05-24T14:57:12.694Z,5.50
2023-05-24T14:59:44.925Z,6.30
2023-05-24T15:02:17.445Z,9.20
2023-05-24T15:04:49.653Z,10.00
2023-05-24T15:07:22.916Z,6.00
2023-05-24T15:09:55.173Z,12.20
2023-05-24T15:12:27.630Z,6.70
2023-05-24T15:14:59.589Z,12.40
2023-05-24T15:17:32.845Z,10.40
2023-05-24T15:20:05.948Z,5.40
2023-05-24T15:22:39.287Z,5.20
2023-05-24T15:25:13.260Z,7.20
2023-05-24T15:30:18.136Z,5.40
2023-05-24T15:32:49.978Z,8.80
2023-05-24T15:35:22.521Z,7.60
2023-05-24T15:37:54.582Z,8.50
2023-05-24T15:40:26.799Z,12.10
2023-05-24T15:42:58.806Z,6.20
2023-05-24T15:45:31.078Z,13.00
2023-05-24T15:48:05.243Z,9.00
2023-05-24T15:53:16.092Z,6.30
2023-05-24T15:55:48.633Z,8.40
2023-05-24T15:58:20.949Z,9.60
2023-05-24T16:00:54.533Z,12.10
2023-05-24T16:05:57.794Z,16.00
2023-05-24T16:08:31.013Z,11.40
2023-05-24T16:11:08.341Z,14.60
2023-05-24T16:13:40.315Z,17.20
2023-05-24T16:16:13.120Z,15.70
2023-05-24T16:18:45.385Z,13.80
2023-05-24T16:21:18.449Z,17.70
2023-05-24T16:23:50.232Z,13.40
2023-05-24T16:26:22.302Z,14.80
2023-05-24T16:28:54.175Z,13.70
2023-05-24T16:31:26.128Z,13.10
2023-05-24T16:33:58.916Z,17.70
2023-05-24T16:36:31.437Z,22.10
2023-05-24T16:39:03.332Z,19.80
2023-05-24T16:41:37.785Z,14.70
2023-05-24T16:44:10.592Z,15.90
2023-05-24T16:46:42.842Z,15.30
2023-05-24T16:49:14.593Z,12.90
2023-05-24T16:51:46.931Z,14.30
2023-05-24T16:54:18.712Z,14.40
2023-05-24T16:56:53.850Z,13.70
2023-05-24T16:59:25.814Z,14.40
2023-05-24T17:01:57.725Z,14.40
2023-05-24T17:04:30.009Z,16.60
2023-05-24T17:07:02.207Z,16.40
2023-05-24T17:09:34.111Z,14.70
2023-05-24T17:12:06.843Z,14.80
2023-05-24T17:14:38.967Z,15.90
2023-05-24T17:17:11.924Z,14.20
2023-05-24T17:19:44.127Z,16.90
2023-05-24T17:22:16.795Z,16.00
2023-05-24T17:24:48.732Z,15.40
2023-05-24T17:27:22.607Z,15.60
2023-05-24T17:29:54.920Z,15.00
2023-05-24T17:32:28.232Z,13.50
2023-05-24T17:35:00.451Z,14.90
2023-05-24T17:37:32.436Z,16.80
2023-05-24T17:40:04.435Z,15.10
2023-05-24T17:42:36.328Z,15.00
2023-05-24T17:45:10.445Z,13.80
2023-05-24T17:47:42.690Z,14.50
2023-05-24T17:50:14.939Z,16.80
2023-05-24T17:52:47.353Z,15.30
2023-05-24T17:55:19.599Z,15.30
2023-05-24T17:57:51.632Z,16.50
2023-05-24T18:00:24.336Z,15.70
2023-05-24T18:02:56.159Z,15.80
2023-05-24T18:05:28.481Z,15.00
2023-05-24T18:08:00.610Z,15.20
2023-05-24T18:10:32.715Z,15.00
2023-05-24T18:13:07.122Z,16.90
2023-05-24T18:15:39.300Z,16.10
2023-05-24T18:18:11.306Z,13.00
2023-05-24T18:20:43.313Z,15.20
2023-05-24T18:23:15.448Z,13.90
2023-05-24T18:25:47.574Z,14.00
2023-05-24T18:28:19.475Z,38.20
2023-05-24T18:30:53.618Z,16.00
2023-05-24T18:33:27.014Z,15.80
2023-05-24T18:35:59.113Z,16.10
2023-05-24T18:38:31.645Z,14.70
2023-05-24T18:41:05.664Z,17.70
2023-05-24T18:43:38.239Z,16.50
2023-05-24T18:46:13.652Z,16.00
2023-05-24T18:48:46.481Z,16.80
2023-05-24T18:51:20.984Z,14.70
2023-05-24T18:53:53.200Z,20.80
2023-05-24T18:56:25.168Z,16.50
2023-05-24T18:58:58.929Z,15.30
2023-05-24T19:04:02.536Z,19.00
2023-05-24T19:06:34.664Z,15.20
2023-05-24T19:09:07.053Z,16.40
2023-05-24T19:11:41.353Z,15.60
2023-05-24T19:14:13.981Z,18.90
2023-05-24T19:16:45.856Z,16.70
2023-05-24T19:19:17.703Z,24.10
2023-05-24T19:21:49.510Z,15.00
2023-05-24T19:24:24.276Z,16.90
2023-05-24T19:26:56.533Z,15.10
2023-05-24T19:29:28.669Z,15.40
2023-05-24T19:32:00.480Z,16.70
2023-05-24T19:34:35.325Z,15.10
2023-05-24T19:37:07.448Z,23.40
2023-05-24T19:39:40.129Z,17.80
2023-05-24T19:42:12.055Z,17.10
2023-05-24T19:44:44.020Z,16.80
2023-05-24T19:47:16.072Z,16.10
2023-05-24T19:49:48.296Z,15.90
2023-05-24T19:52:20.629Z,15.00
2023-05-24T19:54:53.194Z,17.50
2023-05-24T19:57:26.757Z,18.20
2023-05-24T19:59:59.486Z,17.20
2023-05-24T20:02:33.365Z,17.60
2023-05-24T20:05:09.017Z,18.90
2023-05-24T20:07:40.881Z,16.90
2023-05-24T20:10:14.000Z,16.30
2023-05-24T20:12:46.141Z,19.50
2023-05-24T20:15:19.842Z,16.60
2023-05-24T20:17:52.017Z,20.30
2023-05-24T20:20:24.424Z,18.20
2023-05-24T20:22:56.412Z,19.10
2023-05-24T20:25:29.441Z,19.90
2023-05-24T20:28:01.888Z,23.00
2023-05-24T20:30:37.501Z,18.20
2023-05-24T20:33:09.529Z,18.30
2023-05-24T20:35:42.441Z,18.50
2023-05-24T20:38:14.909Z,19.20
2023-05-24T20:40:46.956Z,19.30
2023-05-24T20:43:18.830Z,19.00
2023-05-24T20:45:50.784Z,19.60
2023-05-24T20:48:23.526Z,21.30
2023-05-24T20:50:55.582Z,20.10
2023-05-24T20:53:27.517Z,19.60
2023-05-24T20:55:59.595Z,18.50
2023-05-24T20:58:32.409Z,19.70
2023-05-24T21:01:04.369Z,20.60
2023-05-24T21:03:36.339Z,21.20
2023-05-24T21:06:08.644Z,18.50
2023-05-24T21:08:40.916Z,21.10
2023-05-24T21:11:12.864Z,20.20
2023-05-24T21:13:44.572Z,19.90
2023-05-24T21:16:16.610Z,21.60
2023-05-24T21:18:48.458Z,22.10
2023-05-24T21:21:20.836Z,21.00
2023-05-24T21:23:52.867Z,22.30
2023-05-24T21:26:25.119Z,21.20
2023-05-24T21:28:57.051Z,20.80
2023-05-24T21:31:30.162Z,19.90
2023-05-24T21:34:02.358Z,20.30
2023-05-24T21:36:34.556Z,18.10
2023-05-24T21:39:08.299Z,20.70
2023-05-24T21:41:41.579Z,19.70
2023-05-24T21:44:13.655Z,21.30
2023-05-24T21:46:45.819Z,21.40
2023-05-24T21:49:19.128Z,23.20
2023-05-24T21:51:52.149Z,20.10
2023-05-24T21:54:24.036Z,52.30
2023-05-24T21:56:56.306Z,26.40
2023-05-24T21:59:28.188Z,51.10
2023-05-24T22:02:00.417Z,21.50
2023-05-24T22:04:32.432Z,22.50
2023-05-24T22:07:04.455Z,21.90
2023-05-24T22:09:36.603Z,21.80
2023-05-24T22:12:09.159Z,22.40
2023-05-24T22:14:41.173Z,22.10
2023-05-24T22:17:14.231Z,24.10
2023-05-24T22:19:46.393Z,22.30
2023-05-24T22:22:20.741Z,22.00
2023-05-24T22:24:52.470Z,20.90
2023-05-24T22:27:25.925Z,23.50
2023-05-24T22:29:58.012Z,21.70
2023-05-24T22:32:29.906Z,21.50
2023-05-24T22:35:01.877Z,24.50
2023-05-24T22:37:33.578Z,24.20
2023-05-24T22:40:05.933Z,26.30
2023-05-24T22:42:37.866Z,23.40
2023-05-24T22:45:11.691Z,23.40
2023-05-24T22:47:43.931Z,23.20
2023-05-24T22:50:16.434Z,23.30
2023-05-24T22:52:48.702Z,24.20
2023-05-24T22:55:20.797Z,25.70
2023-05-24T22:57:52.853Z,26.40
2023-05-24T23:00:24.999Z,30.60
2023-05-24T23:02:57.191Z,26.80
2023-05-24T23:05:29.192Z,26.60
2023-05-24T23:08:01.265Z,24.70
2023-05-24T23:10:33.131Z,25.60
2023-05-24T23:13:05.347Z,28.80
2023-05-24T23:15:37.213Z,27.20
2023-05-24T23:18:10.255Z,33.60
2023-05-24T23:20:42.224Z,33.40
2023-05-24T23:23:14.228Z,29.30
2023-05-24T23:25:46.446Z,27.10
2023-05-24T23:28:18.694Z,28.80
2023-05-24T23:30:50.789Z,36.00
2023-05-24T23:33:23.112Z,30.90
2023-05-24T23:35:55.796Z,34.80
2023-05-24T23:38:28.268Z,29.30
2023-05-24T23:41:00.151Z,30.20
2023-05-24T23:43:32.317Z,28.50
2023-05-24T23:46:04.214Z,29.80
2023-05-24T23:48:35.995Z,28.50
2023-05-24T23:51:10.277Z,28.70
2023-05-24T23:53:42.166Z,38.40
2023-05-24T23:56:14.076Z,32.30
2023-05-24T23:58:46.959Z,36.00
